Janicke — LK9012 — position and weather

sailwx.info

Track history (hours):
 
Tides and Currents Weather Stations Pressure Air Temp Water Temp Dewpoint Dewpoint Depression Visibility Wind Speed Wind Dir Waves Ship Positions

Janicke

Last reported at 2017-Nov-16 09:05 UTC. Time now 2017-Dec-13 19:01 UTC.
Position N 70°38' E 029°42'.
Warning: this ship's position is 27 days out of date.

Length 10 m.

Type: Fishing. MMSI: 257194440.

Date/timePositionNaut miles runAvg speedWind from/ knotsBaromVisibWave heightAir tempDewpointWater temp
2017-Nov-16 09:05N 70°38' E 029°42'0 0.0
2017-Nov-16 09:00N 70°38' E 029°42'0 0.0
2017-Nov-16 08:30N 70°38' E 029°42'0 0.0
2017-Nov-16 07:59N 70°38' E 029°42'0 0.0
2017-Nov-16 07:29N 70°38' E 029°42'0 0.0
2017-Nov-16 07:00N 70°38' E 029°42'0 0.0
2017-Nov-16 06:30N 70°38' E 029°42'0 0.0
2017-Nov-16 05:59N 70°38' E 029°42'0 0.0
2017-Nov-16 05:30N 70°38' E 029°42'0 0.0
2017-Nov-16 05:00N 70°38' E 029°42'0 0.0
2017-Nov-16 04:29N 70°38' E 029°42'0 0.0
2017-Nov-16 04:00N 70°38' E 029°42'0 0.0
2017-Nov-16 03:29N 70°38' E 029°42'0 0.0
2017-Nov-16 02:58N 70°38' E 029°42'0 0.0
2017-Nov-16 02:29N 70°38' E 029°42'0 0.0
2017-Nov-16 02:00N 70°38' E 029°42'0 0.0
2017-Nov-16 01:30N 70°38' E 029°42'0 0.0
2017-Nov-16 01:00N 70°38' E 029°42'0 0.0
2017-Nov-16 00:30N 70°38' E 029°42'0 0.0
2017-Nov-16 00:00N 70°38' E 029°42'0 0.0
2017-Nov-15 23:28N 70°38' E 029°42'0 0.0
2017-Nov-15 23:00N 70°38' E 029°42'0 0.0
2017-Nov-15 22:30N 70°38' E 029°42'0 0.0
2017-Nov-15 22:00N 70°38' E 029°42'0 0.0
2017-Nov-15 21:30N 70°38' E 029°42'0 0.0
2017-Nov-15 21:00N 70°38' E 029°42'0 0.0
2017-Nov-15 20:30N 70°38' E 029°42'0 0.0
2017-Nov-15 20:00N 70°38' E 029°42'0 0.0
2017-Nov-15 19:30N 70°38' E 029°42'0 0.0
2017-Nov-15 18:59N 70°38' E 029°42'0 0.0
2017-Nov-15 18:30N 70°38' E 029°42'0 0.0
2017-Nov-15 17:59N 70°38' E 029°42'0 0.0
2017-Nov-15 17:30N 70°38' E 029°42'0 0.0
2017-Nov-15 17:00N 70°38' E 029°42'0 0.0
2017-Nov-15 16:30N 70°38' E 029°42'0 0.0
2017-Nov-15 16:00N 70°38' E 029°42'0 0.0
2017-Nov-15 15:30N 70°38' E 029°42'0 0.0
2017-Nov-15 15:00N 70°38' E 029°42'0 0.0
2017-Nov-15 14:29N 70°38' E 029°42'0 0.0
2017-Nov-15 14:00N 70°38' E 029°42'0 0.0
2017-Nov-15 13:30N 70°38' E 029°42'0 0.0
2017-Nov-15 13:00N 70°38' E 029°42'0 0.0
2017-Nov-15 12:29N 70°38' E 029°42'0 0.0
2017-Nov-15 11:59N 70°38' E 029°42'0 0.0
2017-Nov-15 11:30N 70°38' E 029°42'0 0.0
2017-Nov-15 11:00N 70°38' E 029°42'0 0.0
2017-Nov-15 10:30N 70°38' E 029°42'0 0.8
2017-Nov-15 09:56N 70°38' E 029°43'0 0.0
2017-Nov-15 09:29N 70°38' E 029°43'5 9.3
2017-Nov-15 08:57N 70°41' E 029°53'1 2.8
2017-Nov-15 08:28N 70°43' E 029°55'0 0.3
2017-Nov-15 07:56N 70°43' E 029°54'0 0.4
2017-Nov-15 07:30N 70°43' E 029°55'0 0.2
2017-Nov-15 07:00N 70°43' E 029°55'3 6.6
2017-Nov-15 06:28N 70°40' E 029°49'3 7.0
2017-Nov-15 06:00N 70°38' E 029°42'0 0.0
2017-Nov-15 05:30N 70°38' E 029°42'0 0.0
2017-Nov-15 04:59N 70°38' E 029°42'0 0.0
2017-Nov-15 04:29N 70°38' E 029°42'0 0.0
2017-Nov-15 04:00N 70°38' E 029°42'0 0.0
2017-Nov-15 03:30N 70°38' E 029°42'0 0.0
2017-Nov-15 02:59N 70°38' E 029°42'0 0.0
2017-Nov-15 02:29N 70°38' E 029°42'0 0.0
2017-Nov-15 01:59N 70°38' E 029°42'0 0.0
2017-Nov-15 01:29N 70°38' E 029°42'0 0.0
2017-Nov-15 01:00N 70°38' E 029°42'0 0.0
2017-Nov-15 00:30N 70°38' E 029°42'0 0.0
2017-Nov-15 00:00N 70°38' E 029°42'0 0.0
2017-Nov-14 23:28N 70°38' E 029°42'0 0.0
2017-Nov-14 23:00N 70°38' E 029°42'0 0.0
2017-Nov-14 22:29N 70°38' E 029°42'0 0.0
2017-Nov-14 21:59N 70°38' E 029°42'0 0.0
2017-Nov-14 21:30N 70°38' E 029°42'0 0.0
2017-Nov-14 20:59N 70°38' E 029°42'0 0.0
2017-Nov-14 20:30N 70°38' E 029°42'0 0.0
2017-Nov-14 20:00N 70°38' E 029°42'0 0.0
2017-Nov-14 19:30N 70°38' E 029°42'0 0.0
2017-Nov-14 19:00N 70°38' E 029°42'0 0.0
2017-Nov-14 18:30N 70°38' E 029°42'0 0.0
2017-Nov-14 18:00N 70°38' E 029°42'0 0.0
2017-Nov-14 17:30N 70°38' E 029°42'0 0.0
2017-Nov-14 17:00N 70°38' E 029°42'0 0.0
2017-Nov-14 16:30N 70°38' E 029°42'0 0.0
2017-Nov-14 15:59N 70°38' E 029°42'0 0.0
2017-Nov-14 15:30N 70°38' E 029°42'0 0.0
2017-Nov-14 15:00N 70°38' E 029°42'0 0.0
2017-Nov-14 14:30N 70°38' E 029°42'0 0.0
2017-Nov-14 14:00N 70°38' E 029°42'0 0.0
2017-Nov-14 13:30N 70°38' E 029°42'0 0.0
2017-Nov-14 13:00N 70°38' E 029°42'0 0.0
2017-Nov-14 12:30N 70°38' E 029°42'0 0.0
2017-Nov-14 12:00N 70°38' E 029°42'0 0.0
2017-Nov-14 11:28N 70°38' E 029°42'0 0.0
2017-Nov-14 10:59N 70°38' E 029°42'0 0.0
2017-Nov-14 10:30N 70°38' E 029°42'0 0.0
2017-Nov-14 10:00N 70°38' E 029°42'0 0.0
2017-Nov-14 09:30N 70°38' E 029°42'0 0.0
2017-Nov-14 08:59N 70°38' E 029°42'0 0.0
2017-Nov-14 08:30N 70°38' E 029°42'0 0.0
2017-Nov-14 08:00N 70°38' E 029°42'0 0.0
2017-Nov-14 07:30N 70°38' E 029°42'0 0.0
2017-Nov-14 06:59N 70°38' E 029°42'0 0.0
2017-Nov-14 06:30N 70°38' E 029°42'0 0.0
2017-Nov-14 06:00N 70°38' E 029°42'0 0.0
2017-Nov-14 05:29N 70°38' E 029°42'0 0.0
2017-Nov-14 05:00N 70°38' E 029°42'0 0.0
2017-Nov-14 04:30N 70°38' E 029°42'0 0.0
2017-Nov-14 03:59N 70°38' E 029°42'0 0.0
2017-Nov-14 03:29N 70°38' E 029°42'0 0.0
2017-Nov-14 03:00N 70°38' E 029°42'0 0.0
2017-Nov-14 02:30N 70°38' E 029°42'0 0.0
2017-Nov-14 01:59N 70°38' E 029°42'0 0.0
2017-Nov-14 01:29N 70°38' E 029°42'0 0.0
2017-Nov-14 01:00N 70°38' E 029°42'0 0.0
2017-Nov-14 00:29N 70°38' E 029°42'0 0.0
2017-Nov-14 00:01N 70°38' E 029°42'0 0.0
2017-Nov-13 23:31N 70°38' E 029°42'0 0.0
2017-Nov-13 23:00N 70°38' E 029°42'0 0.0
2017-Nov-13 22:29N 70°38' E 029°42'0 0.0
2017-Nov-13 21:59N 70°38' E 029°42'0 0.0
2017-Nov-13 02:00N 70°38' E 029°42'0 0.0
2017-Nov-13 01:30N 70°38' E 029°42'0 0.0
2017-Nov-13 00:59N 70°38' E 029°42'0 0.0
2017-Nov-13 00:30N 70°38' E 029°42'0 0.0
2017-Nov-12 23:59N 70°38' E 029°42'0 0.0
2017-Nov-12 23:29N 70°38' E 029°42'0 0.0
2017-Nov-12 22:59N 70°38' E 029°42'0 0.0
2017-Nov-12 22:30N 70°38' E 029°42'0 0.0
2017-Nov-12 22:00N 70°38' E 029°42'0 0.0
2017-Nov-12 21:29N 70°38' E 029°42'0 0.0
2017-Nov-12 21:00N 70°38' E 029°42'0 0.0
2017-Nov-12 20:28N 70°38' E 029°42'0 0.0
2017-Nov-12 20:00N 70°38' E 029°42'0 0.0
2017-Nov-12 19:30N 70°38' E 029°42'0 0.0
2017-Nov-12 18:59N 70°38' E 029°42'0 0.0
2017-Nov-12 18:29N 70°38' E 029°42'0 0.0
2017-Nov-12 18:00N 70°38' E 029°42'0 0.0
2017-Nov-12 17:30N 70°38' E 029°42'0 0.0
2017-Nov-12 17:00N 70°38' E 029°42'0 0.0
2017-Nov-12 16:30N 70°38' E 029°42'0 0.0
2017-Nov-12 16:00N 70°38' E 029°42'0 0.0
2017-Nov-12 15:30N 70°38' E 029°42'0 0.0
2017-Nov-12 15:00N 70°38' E 029°42'0 0.0
2017-Nov-12 14:30N 70°38' E 029°42'0 0.0
2017-Nov-12 14:00N 70°38' E 029°42'0 0.0
2017-Nov-12 13:28N 70°38' E 029°42'0 0.0
2017-Nov-12 12:58N 70°38' E 029°42'0 0.0
2017-Nov-12 12:30N 70°38' E 029°42'0 0.0
2017-Nov-12 12:00N 70°38' E 029°42'0 0.0
2017-Nov-12 11:27N 70°38' E 029°42'0 0.0
2017-Nov-12 11:00N 70°38' E 029°42'0 0.0
2017-Nov-12 10:30N 70°38' E 029°42'0 0.0
2017-Nov-12 10:00N 70°38' E 029°42'0 0.0
2017-Nov-12 09:30N 70°38' E 029°42'0 0.0
2017-Nov-12 08:59N 70°38' E 029°42'0 0.0
2017-Nov-12 08:30N 70°38' E 029°42'0 0.0
2017-Nov-12 07:59N 70°38' E 029°42'0 0.0
2017-Nov-12 07:30N 70°38' E 029°42'0 0.0
2017-Nov-12 06:59N 70°38' E 029°42'0 0.0
2017-Nov-12 06:29N 70°38' E 029°42'0 0.0
2017-Nov-12 06:00N 70°38' E 029°42'0 0.0
2017-Nov-12 05:30N 70°38' E 029°42'0 0.0
2017-Nov-12 05:00N 70°38' E 029°42'0 0.0
2017-Nov-12 04:30N 70°38' E 029°42'0 0.0
2017-Nov-12 04:00N 70°38' E 029°42'0 0.0
2017-Nov-12 03:29N 70°38' E 029°42'0 0.0
2017-Nov-12 02:59N 70°38' E 029°42'0 0.0
2017-Nov-12 02:30N 70°38' E 029°42'0 0.0
2017-Nov-12 02:00N 70°38' E 029°42'0 0.0
2017-Nov-12 01:30N 70°38' E 029°42'0 0.0
2017-Nov-12 01:00N 70°38' E 029°42'0 0.0
2017-Nov-12 00:30N 70°38' E 029°42'0 0.0
2017-Nov-12 00:00N 70°38' E 029°42'0 0.0
2017-Nov-11 23:30N 70°38' E 029°42'0 0.0
2017-Nov-11 22:59N 70°38' E 029°42'0 0.0
2017-Nov-11 22:29N 70°38' E 029°42'0 0.0
2017-Nov-11 21:59N 70°38' E 029°42'0 0.0
2017-Nov-11 21:28N 70°38' E 029°42'0 0.0
2017-Nov-11 21:00N 70°38' E 029°42'0 0.0
2017-Nov-11 20:29N 70°38' E 029°42'0 0.0
2017-Nov-11 20:00N 70°38' E 029°42'0 0.0
2017-Nov-11 19:30N 70°38' E 029°42'0 0.0
2017-Nov-11 19:00N 70°38' E 029°42'0 0.0
2017-Nov-11 18:30N 70°38' E 029°42'0 0.0
2017-Nov-11 17:59N 70°38' E 029°42'0 0.0
2017-Nov-11 17:28N 70°38' E 029°42'0 0.0
2017-Nov-11 17:00N 70°38' E 029°42'0 0.0
2017-Nov-11 16:29N 70°38' E 029°42'0 0.0
2017-Nov-11 16:00N 70°38' E 029°42'0 0.0
2017-Nov-11 15:30N 70°38' E 029°42'0 0.0
2017-Nov-11 15:00N 70°38' E 029°42'0 0.0
2017-Nov-11 14:31N 70°38' E 029°42'0 0.0
2017-Nov-11 14:00N 70°38' E 029°42'0 0.0
2017-Nov-11 13:30N 70°38' E 029°42'0 0.0
2017-Nov-11 12:59N 70°38' E 029°42'0 0.0
2017-Nov-11 12:30N 70°38' E 029°42'0 0.0
2017-Nov-11 12:00N 70°38' E 029°42'0 0.0
2017-Nov-11 11:30N 70°38' E 029°42'0 0.0
2017-Nov-11 10:59N 70°38' E 029°42'0 0.0
2017-Nov-11 10:29N 70°38' E 029°42'0 0.0
2017-Nov-11 10:00N 70°38' E 029°42'0 0.0
2017-Nov-11 09:30N 70°38' E 029°42'0 0.0
2017-Nov-11 08:58N 70°38' E 029°42'0 0.0
2017-Nov-11 08:29N 70°38' E 029°42'0 0.0
2017-Nov-11 08:00N 70°38' E 029°42'0 0.0
2017-Nov-11 07:30N 70°38' E 029°42'0 0.0
2017-Nov-11 07:00N 70°38' E 029°42'0 0.0
2017-Nov-11 06:30N 70°38' E 029°42'0 0.0
2017-Nov-11 05:59N 70°38' E 029°42'0 0.0
2017-Nov-11 05:30N 70°38' E 029°42'0 0.0
2017-Nov-11 04:59N 70°38' E 029°42'0 0.0
2017-Nov-11 04:30N 70°38' E 029°42'0 0.0
2017-Nov-11 03:58N 70°38' E 029°42'0 0.0
2017-Nov-11 03:31N 70°38' E 029°42'0 0.0
2017-Nov-11 03:00N 70°38' E 029°42'0 0.0
2017-Nov-11 02:29N 70°38' E 029°42'0 0.0
2017-Nov-11 02:00N 70°38' E 029°42'0 0.0
2017-Nov-11 01:30N 70°38' E 029°42'0 0.0
2017-Nov-11 01:00N 70°38' E 029°42'0 0.0
2017-Nov-11 00:30N 70°38' E 029°42'0 0.0
2017-Nov-11 00:00N 70°38' E 029°42'0 0.0
2017-Nov-10 23:27N 70°38' E 029°42'0 0.0
2017-Nov-10 23:00N 70°38' E 029°42'0 0.0
2017-Nov-10 22:29N 70°38' E 029°42'0 0.0
2017-Nov-10 22:00N 70°38' E 029°42'0 0.0
2017-Nov-10 21:30N 70°38' E 029°42'0 0.0
2017-Nov-10 21:00N 70°38' E 029°42'0 0.0
2017-Nov-10 20:30N 70°38' E 029°42'0 0.0
2017-Nov-10 20:00N 70°38' E 029°42'0 0.0
2017-Nov-10 19:29N 70°38' E 029°42'0 0.0
2017-Nov-10 19:00N 70°38' E 029°42'0 0.0
2017-Nov-10 18:30N 70°38' E 029°42'0 0.0
2017-Nov-10 17:47N 70°38' E 029°42'0 0.0
2017-Nov-10 17:30N 70°38' E 029°42'0 0.0
2017-Nov-10 17:00N 70°38' E 029°42'0 0.0
2017-Nov-10 16:29N 70°38' E 029°42'0 0.0
2017-Nov-10 16:00N 70°38' E 029°42'0 0.0
2017-Nov-10 15:30N 70°38' E 029°42'0 0.0
2017-Nov-10 14:58N 70°38' E 029°42'0 0.0
2017-Nov-10 14:30N 70°38' E 029°42'0 0.0
2017-Nov-10 14:00N 70°38' E 029°42'0 0.0
2017-Nov-10 13:28N 70°38' E 029°42'0 0.0
2017-Nov-10 13:00N 70°38' E 029°42'0 0.0
2017-Nov-10 12:30N 70°38' E 029°42'0 0.0
2017-Nov-10 12:00N 70°38' E 029°42'0 0.0
2017-Nov-10 11:29N 70°38' E 029°42'0 0.0
2017-Nov-10 11:00N 70°38' E 029°42'0 0.0
2017-Nov-10 10:29N 70°38' E 029°42'0 0.0
2017-Nov-10 09:59N 70°38' E 029°42'0 0.0
2017-Nov-10 09:31N 70°38' E 029°42'0 0.0
2017-Nov-10 08:59N 70°38' E 029°42'0 0.0
2017-Nov-10 08:30N 70°38' E 029°42'0 0.0
2017-Nov-10 08:00N 70°38' E 029°42'0 0.0
2017-Nov-10 07:30N 70°38' E 029°42'0 0.0
2017-Nov-10 06:58N 70°38' E 029°42'0 0.0
2017-Nov-10 06:30N 70°38' E 029°42'0 0.0
2017-Nov-10 06:00N 70°38' E 029°42'0 0.0
2017-Nov-10 05:30N 70°38' E 029°42'0 0.0
2017-Nov-10 05:00N 70°38' E 029°42'0 0.0
2017-Nov-10 04:27N 70°38' E 029°42'0 0.0
2017-Nov-10 03:57N 70°38' E 029°42'0 0.0
2017-Nov-10 03:29N 70°38' E 029°42'0 0.0
2017-Nov-10 02:58N 70°38' E 029°42'0 0.0
2017-Nov-10 02:29N 70°38' E 029°42'0 0.0
2017-Nov-10 02:00N 70°38' E 029°42'0 0.0
2017-Nov-10 01:30N 70°38' E 029°42'0 0.0
2017-Nov-10 01:00N 70°38' E 029°42'0 0.0
2017-Nov-10 00:30N 70°38' E 029°42'0 0.0
2017-Nov-09 23:59N 70°38' E 029°42'0 0.0
2017-Nov-09 23:30N 70°38' E 029°42'0 0.0
2017-Nov-09 22:59N 70°38' E 029°42'0 0.0
2017-Nov-09 22:30N 70°38' E 029°42'0 0.0
2017-Nov-09 21:59N 70°38' E 029°42'0 0.0
2017-Nov-09 21:28N 70°38' E 029°42'0 0.0
2017-Nov-09 21:00N 70°38' E 029°42'0 0.0
2017-Nov-09 20:30N 70°38' E 029°42'0 0.0
2017-Nov-09 19:59N 70°38' E 029°42'0 0.0
2017-Nov-09 19:30N 70°38' E 029°42'0 0.0
2017-Nov-09 19:00N 70°38' E 029°42'0 0.0
2017-Nov-09 18:30N 70°38' E 029°42'0 0.0
2017-Nov-09 17:59N 70°38' E 029°42'0 0.0
2017-Nov-09 17:30N 70°38' E 029°42'0 0.0
2017-Nov-09 17:00N 70°38' E 029°42'0 0.0
2017-Nov-09 16:30N 70°38' E 029°42'0 0.0
2017-Nov-09 15:58N 70°38' E 029°42'0 0.0
2017-Nov-09 15:30N 70°38' E 029°42'0 0.0
2017-Nov-09 14:59N 70°38' E 029°42'0 0.0
2017-Nov-09 14:29N 70°38' E 029°42'0 0.0
2017-Nov-09 14:00N 70°38' E 029°42'0 0.0
2017-Nov-09 13:29N 70°38' E 029°42'0 0.0
2017-Nov-09 13:00N 70°38' E 029°42'0 0.0
2017-Nov-09 12:30N 70°38' E 029°42'0 0.0
2017-Nov-09 11:58N 70°38' E 029°42'0 0.0
2017-Nov-09 11:29N 70°38' E 029°42'0 0.0
2017-Nov-09 11:00N 70°38' E 029°42'0 0.0
2017-Nov-09 10:29N 70°38' E 029°42'0 0.0
2017-Nov-09 10:00N 70°38' E 029°42'0 0.0
2017-Nov-09 09:29N 70°38' E 029°42'0 0.0
2017-Nov-09 09:00N 70°38' E 029°42'0 0.0
2017-Nov-09 08:30N 70°38' E 029°42'0 0.0
2017-Nov-09 07:59N 70°38' E 029°42'0 0.0
2017-Nov-09 07:29N 70°38' E 029°42'0 0.0
2017-Nov-09 07:00N 70°38' E 029°42'0 0.0
2017-Nov-09 06:30N 70°38' E 029°42'0 0.0
2017-Nov-09 06:00N 70°38' E 029°42'0 0.0
2017-Nov-09 05:29N 70°38' E 029°42'0 0.0
2017-Nov-09 05:00N 70°38' E 029°42'0 0.0
2017-Nov-09 04:30N 70°38' E 029°42'0 0.0
2017-Nov-09 04:00N 70°38' E 029°42'0 0.0
2017-Nov-09 03:30N 70°38' E 029°42'0 0.0
2017-Nov-09 03:00N 70°38' E 029°42'0 0.0
2017-Nov-09 02:30N 70°38' E 029°42'0 0.0
2017-Nov-09 01:59N 70°38' E 029°42'0 0.0
2017-Nov-09 01:29N 70°38' E 029°42'0 0.0
2017-Nov-09 01:00N 70°38' E 029°42'0 0.0
2017-Nov-09 00:30N 70°38' E 029°42'0 0.0
2017-Nov-09 00:00N 70°38' E 029°42'0 0.0
2017-Nov-08 23:30N 70°38' E 029°42'0 0.0
2017-Nov-08 22:59N 70°38' E 029°42'0 0.0
2017-Nov-08 22:30N 70°38' E 029°42'0 0.0
2017-Nov-08 22:00N 70°38' E 029°42'0 0.0
2017-Nov-08 21:30N 70°38' E 029°42'0 0.0
2017-Nov-08 21:00N 70°38' E 029°42'0 0.0
2017-Nov-08 20:29N 70°38' E 029°42'0 0.0
2017-Nov-08 20:00N 70°38' E 029°42'0 0.0
2017-Nov-08 19:29N 70°38' E 029°42'0 0.0
2017-Nov-08 18:59N 70°38' E 029°42'0 0.0
2017-Nov-08 18:29N 70°38' E 029°42'0 0.0
2017-Nov-08 18:00N 70°38' E 029°42'0 0.0
2017-Nov-08 17:30N 70°38' E 029°42'0 0.0
2017-Nov-08 17:00N 70°38' E 029°42'0 0.0
2017-Nov-08 16:29N 70°38' E 029°42'0 0.0
2017-Nov-08 16:00N 70°38' E 029°42'0 0.0
2017-Nov-08 15:30N 70°38' E 029°42'0 0.0
2017-Nov-08 14:59N 70°38' E 029°42'0 0.0
2017-Nov-08 14:30N 70°38' E 029°42'0 0.0
2017-Nov-08 14:00N 70°38' E 029°42'0 0.0
2017-Nov-08 13:30N 70°38' E 029°42'0 0.0
2017-Nov-08 13:00N 70°38' E 029°42'0 0.0
2017-Nov-08 12:30N 70°38' E 029°42'0 0.0
2017-Nov-08 11:59N 70°38' E 029°42'0 0.0
2017-Nov-08 11:29N 70°38' E 029°42'0 0.0
2017-Nov-08 11:00N 70°38' E 029°42'0 0.0
2017-Nov-08 10:29N 70°38' E 029°42'0 0.0
2017-Nov-08 09:59N 70°38' E 029°42'0 0.0
2017-Nov-08 09:30N 70°38' E 029°42'0 0.0
2017-Nov-08 09:00N 70°38' E 029°42'0 0.0
2017-Nov-08 08:30N 70°38' E 029°42'0 0.0
2017-Nov-08 07:59N 70°38' E 029°42'0 0.0
2017-Nov-08 07:29N 70°38' E 029°42'0 0.0
2017-Nov-08 06:59N 70°38' E 029°42'0 0.0
2017-Nov-08 06:29N 70°38' E 029°42'0 0.0
2017-Nov-08 05:59N 70°38' E 029°42'0 0.0
2017-Nov-08 05:30N 70°38' E 029°42'0 0.0
2017-Nov-08 05:00N 70°38' E 029°42'0 0.0
2017-Nov-08 04:30N 70°38' E 029°42'0 0.0
2017-Nov-08 04:00N 70°38' E 029°42'0 0.0
2017-Nov-08 03:30N 70°38' E 029°42'0 0.0
2017-Nov-08 02:59N 70°38' E 029°42'0 0.0
2017-Nov-08 02:30N 70°38' E 029°42'0 0.0
2017-Nov-08 01:59N 70°38' E 029°42'0 0.0
2017-Nov-08 01:29N 70°38' E 029°42'0 0.0
2017-Nov-08 01:00N 70°38' E 029°42'0 0.0
2017-Nov-08 00:29N 70°38' E 029°42'0 0.0
2017-Nov-08 00:00N 70°38' E 029°42'0 0.0
2017-Nov-07 23:30N 70°38' E 029°42'0 0.0
2017-Nov-07 22:59N 70°38' E 029°42'0 0.0
2017-Nov-07 22:30N 70°38' E 029°42'0 0.0
2017-Nov-07 21:58N 70°38' E 029°42'0 0.0
2017-Nov-07 21:29N 70°38' E 029°42'0 0.0
2017-Nov-07 20:59N 70°38' E 029°42'0 0.0
2017-Nov-07 20:28N 70°38' E 029°42'0 0.0
2017-Nov-07 20:00N 70°38' E 029°42'0 0.0
2017-Nov-07 19:30N 70°38' E 029°42'0 0.0
2017-Nov-07 19:00N 70°38' E 029°42'0 0.0
2017-Nov-07 18:29N 70°38' E 029°42'0 0.0
2017-Nov-07 18:00N 70°38' E 029°42'0 0.0
2017-Nov-07 17:30N 70°38' E 029°42'0 0.0
2017-Nov-07 17:00N 70°38' E 029°42'0 0.0
2017-Nov-07 16:30N 70°38' E 029°42'0 0.0
2017-Nov-07 15:58N 70°38' E 029°42'0 0.0
2017-Nov-07 15:28N 70°38' E 029°42'0 0.0
2017-Nov-07 15:00N 70°38' E 029°42'0 0.0
2017-Nov-07 14:29N 70°38' E 029°42'0 0.0
2017-Nov-07 14:00N 70°38' E 029°42'0 0.0
2017-Nov-07 13:30N 70°38' E 029°42'0 0.0
2017-Nov-07 13:00N 70°38' E 029°42'0 0.0
2017-Nov-07 12:30N 70°38' E 029°42'0 0.0
2017-Nov-07 12:00N 70°38' E 029°42'0 0.0
2017-Nov-07 11:29N 70°38' E 029°42'0 0.0
2017-Nov-07 11:00N 70°38' E 029°42'0 0.0
2017-Nov-07 10:29N 70°38' E 029°42'0 0.0
2017-Nov-07 10:00N 70°38' E 029°42'0 0.0
2017-Nov-07 09:29N 70°38' E 029°42'0 0.0
2017-Nov-07 08:59N 70°38' E 029°42'0 0.0
2017-Nov-07 08:29N 70°38' E 029°42'0 0.0
2017-Nov-07 07:59N 70°38' E 029°42'0 0.0
2017-Nov-07 07:30N 70°38' E 029°42'0 0.0
2017-Nov-07 07:00N 70°38' E 029°42'0 0.0
2017-Nov-07 06:29N 70°38' E 029°42'0 0.0
2017-Nov-07 05:59N 70°38' E 029°42'0 0.0
2017-Nov-07 05:30N 70°38' E 029°42'0 0.0
2017-Nov-07 05:00N 70°38' E 029°42'0 0.0
2017-Nov-07 04:30N 70°38' E 029°42'0 0.0
2017-Nov-07 03:59N 70°38' E 029°42'0 0.0
2017-Nov-07 03:30N 70°38' E 029°42'0 0.0
2017-Nov-07 03:00N 70°38' E 029°42'0 0.0
2017-Nov-07 02:30N 70°38' E 029°42'0 0.0
2017-Nov-07 01:59N 70°38' E 029°42'0 0.0
2017-Nov-07 01:30N 70°38' E 029°42'0 0.0
2017-Nov-07 01:00N 70°38' E 029°42'0 0.0
2017-Nov-07 00:29N 70°38' E 029°42'0 0.0
2017-Nov-06 23:59N 70°38' E 029°42'0 0.0
2017-Nov-06 23:30N 70°38' E 029°42'0 0.0
2017-Nov-06 22:59N 70°38' E 029°42'0 0.0
2017-Nov-06 22:30N 70°38' E 029°42'0 0.0
2017-Nov-06 22:00N 70°38' E 029°42'0 0.0
2017-Nov-06 21:30N 70°38' E 029°42'0 0.0
2017-Nov-06 21:00N 70°38' E 029°42'0 0.0
2017-Nov-06 20:28N 70°38' E 029°42'  
Track history (hours):
 
Tides and Currents Weather Stations Pressure Air Temp Water Temp Dewpoint Dewpoint Depression Visibility Wind Speed Wind Dir Waves Ship Positions

Janicke

Last reported at 2017-Nov-16 09:05 UTC. Time now 2017-Dec-13 19:01 UTC.
Position N 70°38' E 029°42'.
Warning: this ship's position is 27 days out of date.

Length 10 m.

Type: Fishing. MMSI: 257194440.

Date/timePositionNaut miles runAvg speedWind from/ knotsBaromVisibWave heightAir tempDewpointWater temp
2017-Nov-16 09:05N 70°38' E 029°42'0 0.0
2017-Nov-16 09:00N 70°38' E 029°42'0 0.0
2017-Nov-16 08:30N 70°38' E 029°42'0 0.0
2017-Nov-16 07:59N 70°38' E 029°42'0 0.0
2017-Nov-16 07:29N 70°38' E 029°42'0 0.0
2017-Nov-16 07:00N 70°38' E 029°42'0 0.0
2017-Nov-16 06:30N 70°38' E 029°42'0 0.0
2017-Nov-16 05:59N 70°38' E 029°42'0 0.0
2017-Nov-16 05:30N 70°38' E 029°42'0 0.0
2017-Nov-16 05:00N 70°38' E 029°42'0 0.0
2017-Nov-16 04:29N 70°38' E 029°42'0 0.0
2017-Nov-16 04:00N 70°38' E 029°42'0 0.0
2017-Nov-16 03:29N 70°38' E 029°42'0 0.0
2017-Nov-16 02:58N 70°38' E 029°42'0 0.0
2017-Nov-16 02:29N 70°38' E 029°42'0 0.0
2017-Nov-16 02:00N 70°38' E 029°42'0 0.0
2017-Nov-16 01:30N 70°38' E 029°42'0 0.0
2017-Nov-16 01:00N 70°38' E 029°42'0 0.0
2017-Nov-16 00:30N 70°38' E 029°42'0 0.0
2017-Nov-16 00:00N 70°38' E 029°42'0 0.0
2017-Nov-15 23:28N 70°38' E 029°42'0 0.0
2017-Nov-15 23:00N 70°38' E 029°42'0 0.0
2017-Nov-15 22:30N 70°38' E 029°42'0 0.0
2017-Nov-15 22:00N 70°38' E 029°42'0 0.0
2017-Nov-15 21:30N 70°38' E 029°42'0 0.0
2017-Nov-15 21:00N 70°38' E 029°42'0 0.0
2017-Nov-15 20:30N 70°38' E 029°42'0 0.0
2017-Nov-15 20:00N 70°38' E 029°42'0 0.0
2017-Nov-15 19:30N 70°38' E 029°42'0 0.0
2017-Nov-15 18:59N 70°38' E 029°42'0 0.0
2017-Nov-15 18:30N 70°38' E 029°42'0 0.0
2017-Nov-15 17:59N 70°38' E 029°42'0 0.0
2017-Nov-15 17:30N 70°38' E 029°42'0 0.0
2017-Nov-15 17:00N 70°38' E 029°42'0 0.0
2017-Nov-15 16:30N 70°38' E 029°42'0 0.0
2017-Nov-15 16:00N 70°38' E 029°42'0 0.0
2017-Nov-15 15:30N 70°38' E 029°42'0 0.0
2017-Nov-15 15:00N 70°38' E 029°42'0 0.0
2017-Nov-15 14:29N 70°38' E 029°42'0 0.0
2017-Nov-15 14:00N 70°38' E 029°42'0 0.0
2017-Nov-15 13:30N 70°38' E 029°42'0 0.0
2017-Nov-15 13:00N 70°38' E 029°42'0 0.0
2017-Nov-15 12:29N 70°38' E 029°42'0 0.0
2017-Nov-15 11:59N 70°38' E 029°42'0 0.0
2017-Nov-15 11:30N 70°38' E 029°42'0 0.0
2017-Nov-15 11:00N 70°38' E 029°42'0 0.0
2017-Nov-15 10:30N 70°38' E 029°42'0 0.8
2017-Nov-15 09:56N 70°38' E 029°43'0 0.0
2017-Nov-15 09:29N 70°38' E 029°43'5 9.3
2017-Nov-15 08:57N 70°41' E 029°53'1 2.8
2017-Nov-15 08:28N 70°43' E 029°55'0 0.3
2017-Nov-15 07:56N 70°43' E 029°54'0 0.4
2017-Nov-15 07:30N 70°43' E 029°55'0 0.2
2017-Nov-15 07:00N 70°43' E 029°55'3 6.6
2017-Nov-15 06:28N 70°40' E 029°49'3 7.0
2017-Nov-15 06:00N 70°38' E 029°42'0 0.0
2017-Nov-15 05:30N 70°38' E 029°42'0 0.0
2017-Nov-15 04:59N 70°38' E 029°42'0 0.0
2017-Nov-15 04:29N 70°38' E 029°42'0 0.0
2017-Nov-15 04:00N 70°38' E 029°42'0 0.0
2017-Nov-15 03:30N 70°38' E 029°42'0 0.0
2017-Nov-15 02:59N 70°38' E 029°42'0 0.0
2017-Nov-15 02:29N 70°38' E 029°42'0 0.0
2017-Nov-15 01:59N 70°38' E 029°42'0 0.0
2017-Nov-15 01:29N 70°38' E 029°42'0 0.0
2017-Nov-15 01:00N 70°38' E 029°42'0 0.0
2017-Nov-15 00:30N 70°38' E 029°42'0 0.0
2017-Nov-15 00:00N 70°38' E 029°42'0 0.0
2017-Nov-14 23:28N 70°38' E 029°42'0 0.0
2017-Nov-14 23:00N 70°38' E 029°42'0 0.0
2017-Nov-14 22:29N 70°38' E 029°42'0 0.0
2017-Nov-14 21:59N 70°38' E 029°42'0 0.0
2017-Nov-14 21:30N 70°38' E 029°42'0 0.0
2017-Nov-14 20:59N 70°38' E 029°42'0 0.0
2017-Nov-14 20:30N 70°38' E 029°42'0 0.0
2017-Nov-14 20:00N 70°38' E 029°42'0 0.0
2017-Nov-14 19:30N 70°38' E 029°42'0 0.0
2017-Nov-14 19:00N 70°38' E 029°42'0 0.0
2017-Nov-14 18:30N 70°38' E 029°42'0 0.0
2017-Nov-14 18:00N 70°38' E 029°42'0 0.0
2017-Nov-14 17:30N 70°38' E 029°42'0 0.0
2017-Nov-14 17:00N 70°38' E 029°42'0 0.0
2017-Nov-14 16:30N 70°38' E 029°42'0 0.0
2017-Nov-14 15:59N 70°38' E 029°42'0 0.0
2017-Nov-14 15:30N 70°38' E 029°42'0 0.0
2017-Nov-14 15:00N 70°38' E 029°42'0 0.0
2017-Nov-14 14:30N 70°38' E 029°42'0 0.0
2017-Nov-14 14:00N 70°38' E 029°42'0 0.0
2017-Nov-14 13:30N 70°38' E 029°42'0 0.0
2017-Nov-14 13:00N 70°38' E 029°42'0 0.0
2017-Nov-14 12:30N 70°38' E 029°42'0 0.0
2017-Nov-14 12:00N 70°38' E 029°42'0 0.0
2017-Nov-14 11:28N 70°38' E 029°42'0 0.0
2017-Nov-14 10:59N 70°38' E 029°42'0 0.0
2017-Nov-14 10:30N 70°38' E 029°42'0 0.0
2017-Nov-14 10:00N 70°38' E 029°42'0 0.0
2017-Nov-14 09:30N 70°38' E 029°42'0 0.0
2017-Nov-14 08:59N 70°38' E 029°42'0 0.0
2017-Nov-14 08:30N 70°38' E 029°42'0 0.0
2017-Nov-14 08:00N 70°38' E 029°42'0 0.0
2017-Nov-14 07:30N 70°38' E 029°42'0 0.0
2017-Nov-14 06:59N 70°38' E 029°42'0 0.0
2017-Nov-14 06:30N 70°38' E 029°42'0 0.0
2017-Nov-14 06:00N 70°38' E 029°42'0 0.0
2017-Nov-14 05:29N 70°38' E 029°42'0 0.0
2017-Nov-14 05:00N 70°38' E 029°42'0 0.0
2017-Nov-14 04:30N 70°38' E 029°42'0 0.0
2017-Nov-14 03:59N 70°38' E 029°42'0 0.0
2017-Nov-14 03:29N 70°38' E 029°42'0 0.0
2017-Nov-14 03:00N 70°38' E 029°42'0 0.0
2017-Nov-14 02:30N 70°38' E 029°42'0 0.0
2017-Nov-14 01:59N 70°38' E 029°42'0 0.0
2017-Nov-14 01:29N 70°38' E 029°42'0 0.0
2017-Nov-14 01:00N 70°38' E 029°42'0 0.0
2017-Nov-14 00:29N 70°38' E 029°42'0 0.0
2017-Nov-14 00:01N 70°38' E 029°42'0 0.0
2017-Nov-13 23:31N 70°38' E 029°42'0 0.0
2017-Nov-13 23:00N 70°38' E 029°42'0 0.0
2017-Nov-13 22:29N 70°38' E 029°42'0 0.0
2017-Nov-13 21:59N 70°38' E 029°42'0 0.0
2017-Nov-13 02:00N 70°38' E 029°42'0 0.0
2017-Nov-13 01:30N 70°38' E 029°42'0 0.0
2017-Nov-13 00:59N 70°38' E 029°42'0 0.0
2017-Nov-13 00:30N 70°38' E 029°42'0 0.0
2017-Nov-12 23:59N 70°38' E 029°42'0 0.0
2017-Nov-12 23:29N 70°38' E 029°42'0 0.0
2017-Nov-12 22:59N 70°38' E 029°42'0 0.0
2017-Nov-12 22:30N 70°38' E 029°42'0 0.0
2017-Nov-12 22:00N 70°38' E 029°42'0 0.0
2017-Nov-12 21:29N 70°38' E 029°42'0 0.0
2017-Nov-12 21:00N 70°38' E 029°42'0 0.0
2017-Nov-12 20:28N 70°38' E 029°42'0 0.0
2017-Nov-12 20:00N 70°38' E 029°42'0 0.0
2017-Nov-12 19:30N 70°38' E 029°42'0 0.0
2017-Nov-12 18:59N 70°38' E 029°42'0 0.0
2017-Nov-12 18:29N 70°38' E 029°42'0 0.0
2017-Nov-12 18:00N 70°38' E 029°42'0 0.0
2017-Nov-12 17:30N 70°38' E 029°42'0 0.0
2017-Nov-12 17:00N 70°38' E 029°42'0 0.0
2017-Nov-12 16:30N 70°38' E 029°42'0 0.0
2017-Nov-12 16:00N 70°38' E 029°42'0 0.0
2017-Nov-12 15:30N 70°38' E 029°42'0 0.0
2017-Nov-12 15:00N 70°38' E 029°42'0 0.0
2017-Nov-12 14:30N 70°38' E 029°42'0 0.0
2017-Nov-12 14:00N 70°38' E 029°42'0 0.0
2017-Nov-12 13:28N 70°38' E 029°42'0 0.0
2017-Nov-12 12:58N 70°38' E 029°42'0 0.0
2017-Nov-12 12:30N 70°38' E 029°42'0 0.0
2017-Nov-12 12:00N 70°38' E 029°42'0 0.0
2017-Nov-12 11:27N 70°38' E 029°42'0 0.0
2017-Nov-12 11:00N 70°38' E 029°42'0 0.0
2017-Nov-12 10:30N 70°38' E 029°42'0 0.0
2017-Nov-12 10:00N 70°38' E 029°42'0 0.0
2017-Nov-12 09:30N 70°38' E 029°42'0 0.0
2017-Nov-12 08:59N 70°38' E 029°42'0 0.0
2017-Nov-12 08:30N 70°38' E 029°42'0 0.0
2017-Nov-12 07:59N 70°38' E 029°42'0 0.0
2017-Nov-12 07:30N 70°38' E 029°42'0 0.0
2017-Nov-12 06:59N 70°38' E 029°42'0 0.0
2017-Nov-12 06:29N 70°38' E 029°42'0 0.0
2017-Nov-12 06:00N 70°38' E 029°42'0 0.0
2017-Nov-12 05:30N 70°38' E 029°42'0 0.0
2017-Nov-12 05:00N 70°38' E 029°42'0 0.0
2017-Nov-12 04:30N 70°38' E 029°42'0 0.0
2017-Nov-12 04:00N 70°38' E 029°42'0 0.0
2017-Nov-12 03:29N 70°38' E 029°42'0 0.0
2017-Nov-12 02:59N 70°38' E 029°42'0 0.0
2017-Nov-12 02:30N 70°38' E 029°42'0 0.0
2017-Nov-12 02:00N 70°38' E 029°42'0 0.0
2017-Nov-12 01:30N 70°38' E 029°42'0 0.0
2017-Nov-12 01:00N 70°38' E 029°42'0 0.0
2017-Nov-12 00:30N 70°38' E 029°42'0 0.0
2017-Nov-12 00:00N 70°38' E 029°42'0 0.0
2017-Nov-11 23:30N 70°38' E 029°42'0 0.0
2017-Nov-11 22:59N 70°38' E 029°42'0 0.0
2017-Nov-11 22:29N 70°38' E 029°42'0 0.0
2017-Nov-11 21:59N 70°38' E 029°42'0 0.0
2017-Nov-11 21:28N 70°38' E 029°42'0 0.0
2017-Nov-11 21:00N 70°38' E 029°42'0 0.0
2017-Nov-11 20:29N 70°38' E 029°42'0 0.0
2017-Nov-11 20:00N 70°38' E 029°42'0 0.0
2017-Nov-11 19:30N 70°38' E 029°42'0 0.0
2017-Nov-11 19:00N 70°38' E 029°42'0 0.0
2017-Nov-11 18:30N 70°38' E 029°42'0 0.0
2017-Nov-11 17:59N 70°38' E 029°42'0 0.0
2017-Nov-11 17:28N 70°38' E 029°42'0 0.0
2017-Nov-11 17:00N 70°38' E 029°42'0 0.0
2017-Nov-11 16:29N 70°38' E 029°42'0 0.0
2017-Nov-11 16:00N 70°38' E 029°42'0 0.0
2017-Nov-11 15:30N 70°38' E 029°42'0 0.0
2017-Nov-11 15:00N 70°38' E 029°42'0 0.0
2017-Nov-11 14:31N 70°38' E 029°42'0 0.0
2017-Nov-11 14:00N 70°38' E 029°42'0 0.0
2017-Nov-11 13:30N 70°38' E 029°42'0 0.0
2017-Nov-11 12:59N 70°38' E 029°42'0 0.0
2017-Nov-11 12:30N 70°38' E 029°42'0 0.0
2017-Nov-11 12:00N 70°38' E 029°42'0 0.0
2017-Nov-11 11:30N 70°38' E 029°42'0 0.0
2017-Nov-11 10:59N 70°38' E 029°42'0 0.0
2017-Nov-11 10:29N 70°38' E 029°42'0 0.0
2017-Nov-11 10:00N 70°38' E 029°42'0 0.0
2017-Nov-11 09:30N 70°38' E 029°42'0 0.0
2017-Nov-11 08:58N 70°38' E 029°42'0 0.0
2017-Nov-11 08:29N 70°38' E 029°42'0 0.0
2017-Nov-11 08:00N 70°38' E 029°42'0 0.0
2017-Nov-11 07:30N 70°38' E 029°42'0 0.0
2017-Nov-11 07:00N 70°38' E 029°42'0 0.0
2017-Nov-11 06:30N 70°38' E 029°42'0 0.0
2017-Nov-11 05:59N 70°38' E 029°42'0 0.0
2017-Nov-11 05:30N 70°38' E 029°42'0 0.0
2017-Nov-11 04:59N 70°38' E 029°42'0 0.0
2017-Nov-11 04:30N 70°38' E 029°42'0 0.0
2017-Nov-11 03:58N 70°38' E 029°42'0 0.0
2017-Nov-11 03:31N 70°38' E 029°42'0 0.0
2017-Nov-11 03:00N 70°38' E 029°42'0 0.0
2017-Nov-11 02:29N 70°38' E 029°42'0 0.0
2017-Nov-11 02:00N 70°38' E 029°42'0 0.0
2017-Nov-11 01:30N 70°38' E 029°42'0 0.0
2017-Nov-11 01:00N 70°38' E 029°42'0 0.0
2017-Nov-11 00:30N 70°38' E 029°42'0 0.0
2017-Nov-11 00:00N 70°38' E 029°42'0 0.0
2017-Nov-10 23:27N 70°38' E 029°42'0 0.0
2017-Nov-10 23:00N 70°38' E 029°42'0 0.0
2017-Nov-10 22:29N 70°38' E 029°42'0 0.0
2017-Nov-10 22:00N 70°38' E 029°42'0 0.0
2017-Nov-10 21:30N 70°38' E 029°42'0 0.0
2017-Nov-10 21:00N 70°38' E 029°42'0 0.0
2017-Nov-10 20:30N 70°38' E 029°42'0 0.0
2017-Nov-10 20:00N 70°38' E 029°42'0 0.0
2017-Nov-10 19:29N 70°38' E 029°42'0 0.0
2017-Nov-10 19:00N 70°38' E 029°42'0 0.0
2017-Nov-10 18:30N 70°38' E 029°42'0 0.0
2017-Nov-10 17:47N 70°38' E 029°42'0 0.0
2017-Nov-10 17:30N 70°38' E 029°42'0 0.0
2017-Nov-10 17:00N 70°38' E 029°42'0 0.0
2017-Nov-10 16:29N 70°38' E 029°42'0 0.0
2017-Nov-10 16:00N 70°38' E 029°42'0 0.0
2017-Nov-10 15:30N 70°38' E 029°42'0 0.0
2017-Nov-10 14:58N 70°38' E 029°42'0 0.0
2017-Nov-10 14:30N 70°38' E 029°42'0 0.0
2017-Nov-10 14:00N 70°38' E 029°42'0 0.0
2017-Nov-10 13:28N 70°38' E 029°42'0 0.0
2017-Nov-10 13:00N 70°38' E 029°42'0 0.0
2017-Nov-10 12:30N 70°38' E 029°42'0 0.0
2017-Nov-10 12:00N 70°38' E 029°42'0 0.0
2017-Nov-10 11:29N 70°38' E 029°42'0 0.0
2017-Nov-10 11:00N 70°38' E 029°42'0 0.0
2017-Nov-10 10:29N 70°38' E 029°42'0 0.0
2017-Nov-10 09:59N 70°38' E 029°42'0 0.0
2017-Nov-10 09:31N 70°38' E 029°42'0 0.0
2017-Nov-10 08:59N 70°38' E 029°42'0 0.0
2017-Nov-10 08:30N 70°38' E 029°42'0 0.0
2017-Nov-10 08:00N 70°38' E 029°42'0 0.0
2017-Nov-10 07:30N 70°38' E 029°42'0 0.0
2017-Nov-10 06:58N 70°38' E 029°42'0 0.0
2017-Nov-10 06:30N 70°38' E 029°42'0 0.0
2017-Nov-10 06:00N 70°38' E 029°42'0 0.0
2017-Nov-10 05:30N 70°38' E 029°42'0 0.0
2017-Nov-10 05:00N 70°38' E 029°42'0 0.0
2017-Nov-10 04:27N 70°38' E 029°42'0 0.0
2017-Nov-10 03:57N 70°38' E 029°42'0 0.0
2017-Nov-10 03:29N 70°38' E 029°42'0 0.0
2017-Nov-10 02:58N 70°38' E 029°42'0 0.0
2017-Nov-10 02:29N 70°38' E 029°42'0 0.0
2017-Nov-10 02:00N 70°38' E 029°42'0 0.0
2017-Nov-10 01:30N 70°38' E 029°42'0 0.0
2017-Nov-10 01:00N 70°38' E 029°42'0 0.0
2017-Nov-10 00:30N 70°38' E 029°42'0 0.0
2017-Nov-09 23:59N 70°38' E 029°42'0 0.0
2017-Nov-09 23:30N 70°38' E 029°42'0 0.0
2017-Nov-09 22:59N 70°38' E 029°42'0 0.0
2017-Nov-09 22:30N 70°38' E 029°42'0 0.0
2017-Nov-09 21:59N 70°38' E 029°42'0 0.0
2017-Nov-09 21:28N 70°38' E 029°42'0 0.0
2017-Nov-09 21:00N 70°38' E 029°42'0 0.0
2017-Nov-09 20:30N 70°38' E 029°42'0 0.0
2017-Nov-09 19:59N 70°38' E 029°42'0 0.0
2017-Nov-09 19:30N 70°38' E 029°42'0 0.0
2017-Nov-09 19:00N 70°38' E 029°42'0 0.0
2017-Nov-09 18:30N 70°38' E 029°42'0 0.0
2017-Nov-09 17:59N 70°38' E 029°42'0 0.0
2017-Nov-09 17:30N 70°38' E 029°42'0 0.0
2017-Nov-09 17:00N 70°38' E 029°42'0 0.0
2017-Nov-09 16:30N 70°38' E 029°42'0 0.0
2017-Nov-09 15:58N 70°38' E 029°42'0 0.0
2017-Nov-09 15:30N 70°38' E 029°42'0 0.0
2017-Nov-09 14:59N 70°38' E 029°42'0 0.0
2017-Nov-09 14:29N 70°38' E 029°42'0 0.0
2017-Nov-09 14:00N 70°38' E 029°42'0 0.0
2017-Nov-09 13:29N 70°38' E 029°42'0 0.0
2017-Nov-09 13:00N 70°38' E 029°42'0 0.0
2017-Nov-09 12:30N 70°38' E 029°42'0 0.0
2017-Nov-09 11:58N 70°38' E 029°42'0 0.0
2017-Nov-09 11:29N 70°38' E 029°42'0 0.0
2017-Nov-09 11:00N 70°38' E 029°42'0 0.0
2017-Nov-09 10:29N 70°38' E 029°42'0 0.0
2017-Nov-09 10:00N 70°38' E 029°42'0 0.0
2017-Nov-09 09:29N 70°38' E 029°42'0 0.0
2017-Nov-09 09:00N 70°38' E 029°42'0 0.0
2017-Nov-09 08:30N 70°38' E 029°42'0 0.0
2017-Nov-09 07:59N 70°38' E 029°42'0 0.0
2017-Nov-09 07:29N 70°38' E 029°42'0 0.0
2017-Nov-09 07:00N 70°38' E 029°42'0 0.0
2017-Nov-09 06:30N 70°38' E 029°42'0 0.0
2017-Nov-09 06:00N 70°38' E 029°42'0 0.0
2017-Nov-09 05:29N 70°38' E 029°42'0 0.0
2017-Nov-09 05:00N 70°38' E 029°42'0 0.0
2017-Nov-09 04:30N 70°38' E 029°42'0 0.0
2017-Nov-09 04:00N 70°38' E 029°42'0 0.0
2017-Nov-09 03:30N 70°38' E 029°42'0 0.0
2017-Nov-09 03:00N 70°38' E 029°42'0 0.0
2017-Nov-09 02:30N 70°38' E 029°42'0 0.0
2017-Nov-09 01:59N 70°38' E 029°42'0 0.0
2017-Nov-09 01:29N 70°38' E 029°42'0 0.0
2017-Nov-09 01:00N 70°38' E 029°42'0 0.0
2017-Nov-09 00:30N 70°38' E 029°42'0 0.0
2017-Nov-09 00:00N 70°38' E 029°42'0 0.0
2017-Nov-08 23:30N 70°38' E 029°42'0 0.0
2017-Nov-08 22:59N 70°38' E 029°42'0 0.0
2017-Nov-08 22:30N 70°38' E 029°42'0 0.0
2017-Nov-08 22:00N 70°38' E 029°42'0 0.0
2017-Nov-08 21:30N 70°38' E 029°42'0 0.0
2017-Nov-08 21:00N 70°38' E 029°42'0 0.0
2017-Nov-08 20:29N 70°38' E 029°42'0 0.0
2017-Nov-08 20:00N 70°38' E 029°42'0 0.0
2017-Nov-08 19:29N 70°38' E 029°42'0 0.0
2017-Nov-08 18:59N 70°38' E 029°42'0 0.0
2017-Nov-08 18:29N 70°38' E 029°42'0 0.0
2017-Nov-08 18:00N 70°38' E 029°42'0 0.0
2017-Nov-08 17:30N 70°38' E 029°42'0 0.0
2017-Nov-08 17:00N 70°38' E 029°42'0 0.0
2017-Nov-08 16:29N 70°38' E 029°42'0 0.0
2017-Nov-08 16:00N 70°38' E 029°42'0 0.0
2017-Nov-08 15:30N 70°38' E 029°42'0 0.0
2017-Nov-08 14:59N 70°38' E 029°42'0 0.0
2017-Nov-08 14:30N 70°38' E 029°42'0 0.0
2017-Nov-08 14:00N 70°38' E 029°42'0 0.0
2017-Nov-08 13:30N 70°38' E 029°42'0 0.0
2017-Nov-08 13:00N 70°38' E 029°42'0 0.0
2017-Nov-08 12:30N 70°38' E 029°42'0 0.0
2017-Nov-08 11:59N 70°38' E 029°42'0 0.0
2017-Nov-08 11:29N 70°38' E 029°42'0 0.0
2017-Nov-08 11:00N 70°38' E 029°42'0 0.0
2017-Nov-08 10:29N 70°38' E 029°42'0 0.0
2017-Nov-08 09:59N 70°38' E 029°42'0 0.0
2017-Nov-08 09:30N 70°38' E 029°42'0 0.0
2017-Nov-08 09:00N 70°38' E 029°42'0 0.0
2017-Nov-08 08:30N 70°38' E 029°42'0 0.0
2017-Nov-08 07:59N 70°38' E 029°42'0 0.0
2017-Nov-08 07:29N 70°38' E 029°42'0 0.0
2017-Nov-08 06:59N 70°38' E 029°42'0 0.0
2017-Nov-08 06:29N 70°38' E 029°42'0 0.0
2017-Nov-08 05:59N 70°38' E 029°42'0 0.0
2017-Nov-08 05:30N 70°38' E 029°42'0 0.0
2017-Nov-08 05:00N 70°38' E 029°42'0 0.0
2017-Nov-08 04:30N 70°38' E 029°42'0 0.0
2017-Nov-08 04:00N 70°38' E 029°42'0 0.0
2017-Nov-08 03:30N 70°38' E 029°42'0 0.0
2017-Nov-08 02:59N 70°38' E 029°42'0 0.0
2017-Nov-08 02:30N 70°38' E 029°42'0 0.0
2017-Nov-08 01:59N 70°38' E 029°42'0 0.0
2017-Nov-08 01:29N 70°38' E 029°42'0 0.0
2017-Nov-08 01:00N 70°38' E 029°42'0 0.0
2017-Nov-08 00:29N 70°38' E 029°42'0 0.0
2017-Nov-08 00:00N 70°38' E 029°42'0 0.0
2017-Nov-07 23:30N 70°38' E 029°42'0 0.0
2017-Nov-07 22:59N 70°38' E 029°42'0 0.0
2017-Nov-07 22:30N 70°38' E 029°42'0 0.0
2017-Nov-07 21:58N 70°38' E 029°42'0 0.0
2017-Nov-07 21:29N 70°38' E 029°42'0 0.0
2017-Nov-07 20:59N 70°38' E 029°42'0 0.0
2017-Nov-07 20:28N 70°38' E 029°42'0 0.0
2017-Nov-07 20:00N 70°38' E 029°42'0 0.0
2017-Nov-07 19:30N 70°38' E 029°42'0 0.0
2017-Nov-07 19:00N 70°38' E 029°42'0 0.0
2017-Nov-07 18:29N 70°38' E 029°42'0 0.0
2017-Nov-07 18:00N 70°38' E 029°42'0 0.0
2017-Nov-07 17:30N 70°38' E 029°42'0 0.0
2017-Nov-07 17:00N 70°38' E 029°42'0 0.0
2017-Nov-07 16:30N 70°38' E 029°42'0 0.0
2017-Nov-07 15:58N 70°38' E 029°42'0 0.0
2017-Nov-07 15:28N 70°38' E 029°42'0 0.0
2017-Nov-07 15:00N 70°38' E 029°42'0 0.0
2017-Nov-07 14:29N 70°38' E 029°42'0 0.0
2017-Nov-07 14:00N 70°38' E 029°42'0 0.0
2017-Nov-07 13:30N 70°38' E 029°42'0 0.0
2017-Nov-07 13:00N 70°38' E 029°42'0 0.0
2017-Nov-07 12:30N 70°38' E 029°42'0 0.0
2017-Nov-07 12:00N 70°38' E 029°42'0 0.0
2017-Nov-07 11:29N 70°38' E 029°42'0 0.0
2017-Nov-07 11:00N 70°38' E 029°42'0 0.0
2017-Nov-07 10:29N 70°38' E 029°42'0 0.0
2017-Nov-07 10:00N 70°38' E 029°42'0 0.0
2017-Nov-07 09:29N 70°38' E 029°42'0 0.0
2017-Nov-07 08:59N 70°38' E 029°42'0 0.0
2017-Nov-07 08:29N 70°38' E 029°42'0 0.0
2017-Nov-07 07:59N 70°38' E 029°42'0 0.0
2017-Nov-07 07:30N 70°38' E 029°42'0 0.0
2017-Nov-07 07:00N 70°38' E 029°42'0 0.0
2017-Nov-07 06:29N 70°38' E 029°42'0 0.0
2017-Nov-07 05:59N 70°38' E 029°42'0 0.0
2017-Nov-07 05:30N 70°38' E 029°42'0 0.0
2017-Nov-07 05:00N 70°38' E 029°42'0 0.0
2017-Nov-07 04:30N 70°38' E 029°42'0 0.0
2017-Nov-07 03:59N 70°38' E 029°42'0 0.0
2017-Nov-07 03:30N 70°38' E 029°42'0 0.0
2017-Nov-07 03:00N 70°38' E 029°42'0 0.0
2017-Nov-07 02:30N 70°38' E 029°42'0 0.0
2017-Nov-07 01:59N 70°38' E 029°42'0 0.0
2017-Nov-07 01:30N 70°38' E 029°42'0 0.0
2017-Nov-07 01:00N 70°38' E 029°42'0 0.0
2017-Nov-07 00:29N 70°38' E 029°42'0 0.0
2017-Nov-06 23:59N 70°38' E 029°42'0 0.0
2017-Nov-06 23:30N 70°38' E 029°42'0 0.0
2017-Nov-06 22:59N 70°38' E 029°42'0 0.0
2017-Nov-06 22:30N 70°38' E 029°42'0 0.0
2017-Nov-06 22:00N 70°38' E 029°42'0 0.0
2017-Nov-06 21:30N 70°38' E 029°42'0 0.0
2017-Nov-06 21:00N 70°38' E 029°42'0 0.0
2017-Nov-06 20:28N 70°38' E 029°42'  

Dump ship's entire track history